sensor_id;sensor_type;location;lat;lon;timestamp;pressure;altitude;pressure_sealevel;temperature;humidity
61618;BME280;47518;51.776;9.370;2022-12-17T00:00:46;100880.34;;;-6.12;77.95
61618;BME280;47518;51.776;9.370;2022-12-17T00:03:32;100875.56;;;-6.03;77.72
61618;BME280;47518;51.776;9.370;2022-12-17T00:06:17;100880.84;;;-6.03;78.31
61618;BME280;47518;51.776;9.370;2022-12-17T00:09:03;100887.72;;;-5.97;77.02
61618;BME280;47518;51.776;9.370;2022-12-17T00:11:49;100884.47;;;-6.05;77.28
61618;BME280;47518;51.776;9.370;2022-12-17T00:14:35;100891.03;;;-6.15;77.89
61618;BME280;47518;51.776;9.370;2022-12-17T00:17:20;100893.00;;;-6.21;78.22
61618;BME280;47518;51.776;9.370;2022-12-17T00:20:05;100893.13;;;-6.24;78.54
61618;BME280;47518;51.776;9.370;2022-12-17T00:22:59;100903.44;;;-6.41;79.59
61618;BME280;47518;51.776;9.370;2022-12-17T00:25:50;100903.84;;;-6.28;77.65
61618;BME280;47518;51.776;9.370;2022-12-17T00:28:36;100903.91;;;-6.30;78.36
61618;BME280;47518;51.776;9.370;2022-12-17T00:31:21;100911.09;;;-6.33;78.44
61618;BME280;47518;51.776;9.370;2022-12-17T00:34:07;100919.03;;;-6.33;78.67
61618;BME280;47518;51.776;9.370;2022-12-17T00:36:52;100925.19;;;-6.33;78.25
61618;BME280;47518;51.776;9.370;2022-12-17T00:39:37;100927.03;;;-6.35;78.61
61618;BME280;47518;51.776;9.370;2022-12-17T00:42:22;100930.25;;;-6.27;78.70
61618;BME280;47518;51.776;9.370;2022-12-17T00:45:08;100935.84;;;-6.34;79.26
61618;BME280;47518;51.776;9.370;2022-12-17T00:47:53;100926.88;;;-6.30;79.05
61618;BME280;47518;51.776;9.370;2022-12-17T00:50:38;100929.63;;;-6.33;79.53
61618;BME280;47518;51.776;9.370;2022-12-17T00:53:23;100936.75;;;-6.35;79.65
61618;BME280;47518;51.776;9.370;2022-12-17T00:56:09;100932.41;;;-6.38;80.30
61618;BME280;47518;51.776;9.370;2022-12-17T00:58:54;100933.13;;;-6.33;79.02
61618;BME280;47518;51.776;9.370;2022-12-17T01:01:39;100933.63;;;-6.22;79.38
61618;BME280;47518;51.776;9.370;2022-12-17T01:04:24;100927.53;;;-6.25;79.17
61618;BME280;47518;51.776;9.370;2022-12-17T01:07:10;100932.03;;;-6.27;78.60
61618;BME280;47518;51.776;9.370;2022-12-17T01:09:55;100941.13;;;-6.34;78.37
61618;BME280;47518;51.776;9.370;2022-12-17T01:12:40;100941.88;;;-6.31;78.97
61618;BME280;47518;51.776;9.370;2022-12-17T01:15:25;100950.75;;;-6.32;78.53
61618;BME280;47518;51.776;9.370;2022-12-17T01:18:16;100948.09;;;-6.32;78.88
61618;BME280;47518;51.776;9.370;2022-12-17T01:21:02;100948.53;;;-6.44;78.91
61618;BME280;47518;51.776;9.370;2022-12-17T01:23:47;100949.28;;;-6.40;79.25
61618;BME280;47518;51.776;9.370;2022-12-17T01:26:32;100950.78;;;-6.33;78.62
61618;BME280;47518;51.776;9.370;2022-12-17T01:29:17;100959.91;;;-6.42;78.34
61618;BME280;47518;51.776;9.370;2022-12-17T01:32:03;100967.72;;;-6.39;78.57
61618;BME280;47518;51.776;9.370;2022-12-17T01:34:48;100962.38;;;-6.37;78.68
61618;BME280;47518;51.776;9.370;2022-12-17T01:37:33;100967.03;;;-6.44;78.48
61618;BME280;47518;51.776;9.370;2022-12-17T01:40:19;100969.69;;;-6.44;78.74
61618;BME280;47518;51.776;9.370;2022-12-17T01:43:08;100966.00;;;-6.40;78.19
61618;BME280;47518;51.776;9.370;2022-12-17T01:45:55;100981.66;;;-6.59;77.92
61618;BME280;47518;51.776;9.370;2022-12-17T01:48:43;100973.06;;;-6.65;78.81
61618;BME280;47518;51.776;9.370;2022-12-17T01:51:31;100974.53;;;-6.57;79.82
61618;BME280;47518;51.776;9.370;2022-12-17T01:54:17;100978.09;;;-6.58;79.29
61618;BME280;47518;51.776;9.370;2022-12-17T01:57:04;100981.63;;;-6.57;78.86
61618;BME280;47518;51.776;9.370;2022-12-17T01:59:57;100982.94;;;-6.70;78.23
61618;BME280;47518;51.776;9.370;2022-12-17T02:02:44;100988.25;;;-6.72;79.99
61618;BME280;47518;51.776;9.370;2022-12-17T02:05:44;100995.13;;;-6.66;78.76
61618;BME280;47518;51.776;9.370;2022-12-17T02:08:47;100989.34;;;-6.78;79.79
61618;BME280;47518;51.776;9.370;2022-12-17T02:11:41;101000.78;;;-6.77;79.55
61618;BME280;47518;51.776;9.370;2022-12-17T02:14:40;100995.78;;;-6.86;79.69
61618;BME280;47518;51.776;9.370;2022-12-17T02:17:31;101005.38;;;-6.84;79.78
61618;BME280;47518;51.776;9.370;2022-12-17T02:26:17;101003.72;;;-6.86;78.71
61618;BME280;47518;51.776;9.370;2022-12-17T02:29:05;101002.50;;;-6.76;79.71
61618;BME280;47518;51.776;9.370;2022-12-17T02:31:52;101004.13;;;-6.72;78.35
61618;BME280;47518;51.776;9.370;2022-12-17T02:34:43;101010.25;;;-6.70;78.93
61618;BME280;47518;51.776;9.370;2022-12-17T02:37:28;101007.78;;;-6.76;79.35
61618;BME280;47518;51.776;9.370;2022-12-17T02:40:13;100993.31;;;-6.64;78.95
61618;BME280;47518;51.776;9.370;2022-12-17T02:42:59;101005.50;;;-6.60;79.25
61618;BME280;47518;51.776;9.370;2022-12-17T02:45:45;101004.44;;;-6.55;79.16
61618;BME280;47518;51.776;9.370;2022-12-17T02:48:31;101010.47;;;-6.51;79.94
61618;BME280;47518;51.776;9.370;2022-12-17T02:51:16;101010.53;;;-6.53;79.80
61618;BME280;47518;51.776;9.370;2022-12-17T02:54:02;101024.63;;;-6.52;79.33
61618;BME280;47518;51.776;9.370;2022-12-17T02:56:48;101017.00;;;-6.61;78.67
61618;BME280;47518;51.776;9.370;2022-12-17T02:59:33;101023.00;;;-6.56;78.04
61618;BME280;47518;51.776;9.370;2022-12-17T03:02:18;101010.75;;;-6.59;78.13
61618;BME280;47518;51.776;9.370;2022-12-17T03:05:04;101024.94;;;-6.61;77.87
61618;BME280;47518;51.776;9.370;2022-12-17T03:07:49;101034.81;;;-6.66;78.79
61618;BME280;47518;51.776;9.370;2022-12-17T03:10:37;101018.19;;;-6.70;79.52
61618;BME280;47518;51.776;9.370;2022-12-17T03:13:25;101027.56;;;-6.60;79.22
61618;BME280;47518;51.776;9.370;2022-12-17T03:16:13;101025.44;;;-6.50;79.74
61618;BME280;47518;51.776;9.370;2022-12-17T03:18:59;101021.88;;;-6.49;79.43
61618;BME280;47518;51.776;9.370;2022-12-17T03:21:45;101024.56;;;-6.51;79.43
61618;BME280;47518;51.776;9.370;2022-12-17T03:24:30;101026.91;;;-6.41;79.77
61618;BME280;47518;51.776;9.370;2022-12-17T03:27:15;101032.81;;;-6.33;78.90
61618;BME280;47518;51.776;9.370;2022-12-17T03:30:01;101026.16;;;-6.45;78.67
61618;BME280;47518;51.776;9.370;2022-12-17T03:32:55;101034.66;;;-6.35;79.02
61618;BME280;47518;51.776;9.370;2022-12-17T03:35:40;101033.41;;;-6.25;79.00
61618;BME280;47518;51.776;9.370;2022-12-17T03:38:25;101034.66;;;-6.35;79.55
61618;BME280;47518;51.776;9.370;2022-12-17T03:41:11;101038.66;;;-6.24;77.84
61618;BME280;47518;51.776;9.370;2022-12-17T03:43:56;101037.94;;;-6.29;78.11
61618;BME280;47518;51.776;9.370;2022-12-17T03:46:41;101044.00;;;-6.52;78.67
61618;BME280;47518;51.776;9.370;2022-12-17T03:49:26;101037.75;;;-6.49;79.18
61618;BME280;47518;51.776;9.370;2022-12-17T03:52:12;101047.69;;;-6.56;79.96
61618;BME280;47518;51.776;9.370;2022-12-17T03:55:00;101032.44;;;-6.48;79.46
61618;BME280;47518;51.776;9.370;2022-12-17T03:57:45;101049.22;;;-6.77;80.34
61618;BME280;47518;51.776;9.370;2022-12-17T04:00:30;101045.16;;;-6.59;80.03
61618;BME280;47518;51.776;9.370;2022-12-17T04:03:16;101040.66;;;-6.57;79.71
61618;BME280;47518;51.776;9.370;2022-12-17T04:06:01;101042.16;;;-6.50;79.35
61618;BME280;47518;51.776;9.370;2022-12-17T04:08:46;101052.06;;;-6.55;80.21
61618;BME280;47518;51.776;9.370;2022-12-17T04:11:31;101035.94;;;-6.47;79.78
61618;BME280;47518;51.776;9.370;2022-12-17T04:14:17;101050.09;;;-6.48;80.17
61618;BME280;47518;51.776;9.370;2022-12-17T04:17:02;101057.00;;;-6.44;79.21
61618;BME280;47518;51.776;9.370;2022-12-17T04:19:47;101041.06;;;-6.42;78.77
61618;BME280;47518;51.776;9.370;2022-12-17T04:22:32;101039.22;;;-6.40;78.93
61618;BME280;47518;51.776;9.370;2022-12-17T04:25:17;101054.91;;;-6.34;79.91
61618;BME280;47518;51.776;9.370;2022-12-17T04:28:03;101054.69;;;-6.28;80.07
61618;BME280;47518;51.776;9.370;2022-12-17T04:30:48;101063.41;;;-6.25;80.55
61618;BME280;47518;51.776;9.370;2022-12-17T04:33:33;101067.00;;;-6.27;79.78
61618;BME280;47518;51.776;9.370;2022-12-17T04:36:18;101062.06;;;-6.38;79.39
61618;BME280;47518;51.776;9.370;2022-12-17T04:39:04;101067.91;;;-6.28;79.62
61618;BME280;47518;51.776;9.370;2022-12-17T04:41:49;101074.22;;;-6.32;79.24
61618;BME280;47518;51.776;9.370;2022-12-17T04:44:34;101067.34;;;-6.38;78.49
61618;BME280;47518;51.776;9.370;2022-12-17T04:47:20;101058.34;;;-6.32;78.45
61618;BME280;47518;51.776;9.370;2022-12-17T04:50:05;101073.56;;;-6.39;78.39
61618;BME280;47518;51.776;9.370;2022-12-17T04:52:58;101071.06;;;-6.43;79.48
61618;BME280;47518;51.776;9.370;2022-12-17T04:55:44;101076.75;;;-6.29;78.82
61618;BME280;47518;51.776;9.370;2022-12-17T04:58:30;101083.69;;;-6.25;79.10
61618;BME280;47518;51.776;9.370;2022-12-17T05:01:15;101091.03;;;-6.60;79.74
61618;BME280;47518;51.776;9.370;2022-12-17T05:04:00;101069.06;;;-6.35;79.85
61618;BME280;47518;51.776;9.370;2022-12-17T05:06:46;101083.53;;;-6.21;78.81
61618;BME280;47518;51.776;9.370;2022-12-17T05:09:31;101075.09;;;-6.32;78.95
61618;BME280;47518;51.776;9.370;2022-12-17T05:24:44;101101.88;;;-7.57;85.66
61618;BME280;47518;51.776;9.370;2022-12-17T05:27:29;101106.81;;;-7.45;85.61
61618;BME280;47518;51.776;9.370;2022-12-17T05:30:14;101103.41;;;-7.19;85.09
61618;BME280;47518;51.776;9.370;2022-12-17T05:33:01;101103.03;;;-7.07;83.05
61618;BME280;47518;51.776;9.370;2022-12-17T05:35:46;101105.25;;;-6.92;82.12
61618;BME280;47518;51.776;9.370;2022-12-17T05:38:32;101101.53;;;-6.86;81.68
61618;BME280;47518;51.776;9.370;2022-12-17T05:41:17;101102.28;;;-6.81;81.09
61618;BME280;47518;51.776;9.370;2022-12-17T05:44:02;101105.13;;;-6.89;81.08
61618;BME280;47518;51.776;9.370;2022-12-17T05:46:48;101099.84;;;-6.89;81.94
61618;BME280;47518;51.776;9.370;2022-12-17T05:49:33;101095.72;;;-6.97;80.87
61618;BME280;47518;51.776;9.370;2022-12-17T05:52:18;101101.91;;;-6.98;80.84
61618;BME280;47518;51.776;9.370;2022-12-17T05:55:04;101099.59;;;-7.09;81.77
61618;BME280;47518;51.776;9.370;2022-12-17T05:57:49;101099.75;;;-7.14;82.23
61618;BME280;47518;51.776;9.370;2022-12-17T06:00:34;101109.53;;;-7.17;80.89
61618;BME280;47518;51.776;9.370;2022-12-17T06:03:20;101107.56;;;-7.40;81.96
61618;BME280;47518;51.776;9.370;2022-12-17T06:06:05;101120.63;;;-7.36;81.44
61618;BME280;47518;51.776;9.370;2022-12-17T06:08:50;101126.91;;;-7.40;80.93
61618;BME280;47518;51.776;9.370;2022-12-17T06:11:35;101125.22;;;-7.42;79.74
61618;BME280;47518;51.776;9.370;2022-12-17T06:14:21;101136.00;;;-7.50;80.80
61618;BME280;47518;51.776;9.370;2022-12-17T06:17:06;101140.38;;;-7.49;80.63
61618;BME280;47518;51.776;9.370;2022-12-17T06:19:51;101147.19;;;-7.42;79.94
61618;BME280;47518;51.776;9.370;2022-12-17T06:22:36;101157.63;;;-7.36;80.06
61618;BME280;47518;51.776;9.370;2022-12-17T06:25:22;101153.44;;;-7.44;80.86
61618;BME280;47518;51.776;9.370;2022-12-17T06:28:07;101163.97;;;-7.43;80.71
61618;BME280;47518;51.776;9.370;2022-12-17T06:30:53;101166.06;;;-7.55;80.86
61618;BME280;47518;51.776;9.370;2022-12-17T06:33:48;101166.66;;;-7.44;80.52
61618;BME280;47518;51.776;9.370;2022-12-17T06:36:33;101175.53;;;-7.47;80.64
61618;BME280;47518;51.776;9.370;2022-12-17T06:39:19;101169.28;;;-7.44;79.64
61618;BME280;47518;51.776;9.370;2022-12-17T06:42:04;101177.91;;;-7.70;79.92
61618;BME280;47518;51.776;9.370;2022-12-17T06:44:49;101170.03;;;-7.72;79.84
61618;BME280;47518;51.776;9.370;2022-12-17T06:47:34;101184.16;;;-7.73;78.70
61618;BME280;47518;51.776;9.370;2022-12-17T06:50:20;101178.06;;;-8.10;80.11
61618;BME280;47518;51.776;9.370;2022-12-17T06:53:05;101172.56;;;-8.01;80.29
61618;BME280;47518;51.776;9.370;2022-12-17T06:55:51;101179.47;;;-7.96;80.23
61618;BME280;47518;51.776;9.370;2022-12-17T06:58:37;101179.28;;;-7.89;79.02
61618;BME280;47518;51.776;9.370;2022-12-17T07:01:22;101194.13;;;-7.84;79.10
61618;BME280;47518;51.776;9.370;2022-12-17T07:04:07;101198.56;;;-7.86;79.73
61618;BME280;47518;51.776;9.370;2022-12-17T07:06:53;101199.66;;;-7.95;79.46
61618;BME280;47518;51.776;9.370;2022-12-17T07:09:39;101203.78;;;-7.83;80.65
61618;BME280;47518;51.776;9.370;2022-12-17T07:12:25;101215.31;;;-7.87;80.91
61618;BME280;47518;51.776;9.370;2022-12-17T07:15:11;101214.09;;;-7.74;80.02
61618;BME280;47518;51.776;9.370;2022-12-17T07:17:59;101211.53;;;-7.77;79.42
61618;BME280;47518;51.776;9.370;2022-12-17T07:20:46;101223.81;;;-7.74;78.97
61618;BME280;47518;51.776;9.370;2022-12-17T07:23:32;101225.94;;;-7.90;80.49
61618;BME280;47518;51.776;9.370;2022-12-17T07:26:17;101242.75;;;-7.94;79.28
61618;BME280;47518;51.776;9.370;2022-12-17T07:29:02;101236.72;;;-7.99;79.36
61618;BME280;47518;51.776;9.370;2022-12-17T07:31:48;101232.19;;;-7.94;79.92
61618;BME280;47518;51.776;9.370;2022-12-17T07:34:33;101234.63;;;-7.85;79.42
61618;BME280;47518;51.776;9.370;2022-12-17T07:37:18;101238.25;;;-7.90;79.18
61618;BME280;47518;51.776;9.370;2022-12-17T07:40:04;101250.38;;;-7.82;77.71
61618;BME280;47518;51.776;9.370;2022-12-17T07:42:49;101266.38;;;-7.89;77.63
61618;BME280;47518;51.776;9.370;2022-12-17T07:45:35;101253.44;;;-8.36;78.75
61618;BME280;47518;51.776;9.370;2022-12-17T07:48:20;101258.81;;;-8.03;79.62
61618;BME280;47518;51.776;9.370;2022-12-17T07:51:05;101264.22;;;-8.08;79.55
61618;BME280;47518;51.776;9.370;2022-12-17T07:53:51;101275.38;;;-7.97;79.69
61618;BME280;47518;51.776;9.370;2022-12-17T07:56:36;101278.72;;;-7.90;79.49
61618;BME280;47518;51.776;9.370;2022-12-17T07:59:22;101271.91;;;-7.99;79.58
61618;BME280;47518;51.776;9.370;2022-12-17T08:02:09;101286.94;;;-8.02;78.74
61618;BME280;47518;51.776;9.370;2022-12-17T08:04:54;101286.44;;;-7.81;78.13
61618;BME280;47518;51.776;9.370;2022-12-17T08:07:39;101276.81;;;-8.20;78.13
61618;BME280;47518;51.776;9.370;2022-12-17T08:10:25;101294.00;;;-8.04;79.27
61618;BME280;47518;51.776;9.370;2022-12-17T08:13:10;101294.56;;;-7.90;78.55
61618;BME280;47518;51.776;9.370;2022-12-17T08:15:55;101305.94;;;-7.88;78.35
61618;BME280;47518;51.776;9.370;2022-12-17T08:18:41;101297.47;;;-8.02;78.22
61618;BME280;47518;51.776;9.370;2022-12-17T08:21:26;101295.34;;;-7.85;78.19
61618;BME280;47518;51.776;9.370;2022-12-17T08:24:11;101299.50;;;-7.75;78.08
61618;BME280;47518;51.776;9.370;2022-12-17T08:26:56;101297.97;;;-7.85;77.67
61618;BME280;47518;51.776;9.370;2022-12-17T08:29:42;101301.06;;;-7.68;78.37
61618;BME280;47518;51.776;9.370;2022-12-17T08:32:27;101303.47;;;-7.58;77.63
61618;BME280;47518;51.776;9.370;2022-12-17T08:35:12;101314.69;;;-7.49;76.41
61618;BME280;47518;51.776;9.370;2022-12-17T08:38:02;101317.66;;;-7.62;77.11
61618;BME280;47518;51.776;9.370;2022-12-17T08:40:47;101314.16;;;-7.63;76.66
61618;BME280;47518;51.776;9.370;2022-12-17T08:43:33;101315.78;;;-7.57;77.73
61618;BME280;47518;51.776;9.370;2022-12-17T08:46:18;101333.34;;;-7.56;77.07
61618;BME280;47518;51.776;9.370;2022-12-17T08:49:03;101317.63;;;-7.61;77.67
61618;BME280;47518;51.776;9.370;2022-12-17T08:51:49;101324.88;;;-7.69;77.01
61618;BME280;47518;51.776;9.370;2022-12-17T08:54:34;101328.28;;;-7.66;77.01
61618;BME280;47518;51.776;9.370;2022-12-17T08:57:19;101326.47;;;-7.62;76.61
61618;BME280;47518;51.776;9.370;2022-12-17T09:00:05;101320.97;;;-7.54;77.22
61618;BME280;47518;51.776;9.370;2022-12-17T09:02:55;101320.56;;;-7.38;76.78
61618;BME280;47518;51.776;9.370;2022-12-17T09:05:41;101328.41;;;-7.35;77.41
61618;BME280;47518;51.776;9.370;2022-12-17T09:08:27;101321.91;;;-7.21;77.18
61618;BME280;47518;51.776;9.370;2022-12-17T09:11:12;101338.25;;;-7.06;77.34
61618;BME280;47518;51.776;9.370;2022-12-17T09:13:58;101330.47;;;-7.12;76.54
61618;BME280;47518;51.776;9.370;2022-12-17T09:16:43;101340.91;;;-7.07;76.18
61618;BME280;47518;51.776;9.370;2022-12-17T09:19:28;101341.47;;;-6.94;76.33
61618;BME280;47518;51.776;9.370;2022-12-17T09:22:14;101338.75;;;-7.25;76.23
61618;BME280;47518;51.776;9.370;2022-12-17T09:24:59;101335.34;;;-7.30;76.85
61618;BME280;47518;51.776;9.370;2022-12-17T09:27:44;101338.28;;;-7.43;77.64
61618;BME280;47518;51.776;9.370;2022-12-17T09:30:30;101336.75;;;-7.16;76.88
61618;BME280;47518;51.776;9.370;2022-12-17T09:33:15;101337.25;;;-7.01;77.33
61618;BME280;47518;51.776;9.370;2022-12-17T09:36:03;101341.84;;;-6.44;77.82
61618;BME280;47518;51.776;9.370;2022-12-17T09:38:48;101334.28;;;-5.71;75.96
61618;BME280;47518;51.776;9.370;2022-12-17T09:41:42;101339.16;;;-4.80;72.36
61618;BME280;47518;51.776;9.370;2022-12-17T09:50:12;101342.22;;;-1.53;59.55
61618;BME280;47518;51.776;9.370;2022-12-17T09:52:59;101330.81;;;-1.37;57.59
61618;BME280;47518;51.776;9.370;2022-12-17T09:55:49;101339.38;;;-0.62;55.53
61618;BME280;47518;51.776;9.370;2022-12-17T09:58:38;101341.16;;;0.37;53.31
61618;BME280;47518;51.776;9.370;2022-12-17T10:01:26;101343.31;;;1.22;52.16
61618;BME280;47518;51.776;9.370;2022-12-17T10:04:19;101355.97;;;0.58;51.31
61618;BME280;47518;51.776;9.370;2022-12-17T10:07:10;101355.81;;;0.62;53.99
61618;BME280;47518;51.776;9.370;2022-12-17T10:10:00;101359.59;;;1.03;53.10
61618;BME280;47518;51.776;9.370;2022-12-17T10:12:45;101352.84;;;0.19;55.50
61618;BME280;47518;51.776;9.370;2022-12-17T10:15:31;101349.03;;;-0.59;58.93
61618;BME280;47518;51.776;9.370;2022-12-17T10:18:16;101348.97;;;-0.57;59.02
61618;BME280;47518;51.776;9.370;2022-12-17T10:21:08;101362.50;;;-1.31;61.42
61618;BME280;47518;51.776;9.370;2022-12-17T10:24:04;101366.91;;;-0.26;58.62
61618;BME280;47518;51.776;9.370;2022-12-17T10:26:50;101359.19;;;0.49;56.29
61618;BME280;47518;51.776;9.370;2022-12-17T10:29:35;101369.16;;;0.93;57.24
61618;BME280;47518;51.776;9.370;2022-12-17T10:32:22;101358.25;;;1.26;54.46
61618;BME280;47518;51.776;9.370;2022-12-17T10:35:26;101352.47;;;2.19;52.53
61618;BME280;47518;51.776;9.370;2022-12-17T10:38:23;101362.56;;;3.76;48.32
61618;BME280;47518;51.776;9.370;2022-12-17T10:41:33;101351.47;;;5.03;45.46
61618;BME280;47518;51.776;9.370;2022-12-17T10:44:20;101345.75;;;4.84;44.71
61618;BME280;47518;51.776;9.370;2022-12-17T10:47:18;101350.00;;;4.38;46.43
61618;BME280;47518;51.776;9.370;2022-12-17T10:50:09;101356.34;;;4.37;45.36
61618;BME280;47518;51.776;9.370;2022-12-17T10:52:55;101353.06;;;3.45;47.42
61618;BME280;47518;51.776;9.370;2022-12-17T10:55:57;101363.38;;;2.30;50.99
61618;BME280;47518;51.776;9.370;2022-12-17T10:58:52;101365.69;;;1.21;54.66
61618;BME280;47518;51.776;9.370;2022-12-17T11:01:39;101359.06;;;0.67;56.30
61618;BME280;47518;51.776;9.370;2022-12-17T11:07:36;101366.25;;;1.12;56.43
61618;BME280;47518;51.776;9.370;2022-12-17T11:10:24;101365.56;;;1.08;57.23
61618;BME280;47518;51.776;9.370;2022-12-17T11:13:17;101365.78;;;1.20;57.64
61618;BME280;47518;51.776;9.370;2022-12-17T11:16:13;101368.25;;;1.08;56.72
61618;BME280;47518;51.776;9.370;2022-12-17T11:45:30;101354.59;;;3.36;50.98
61618;BME280;47518;51.776;9.370;2022-12-17T11:51:40;101351.16;;;2.53;55.16
61618;BME280;47518;51.776;9.370;2022-12-17T11:54:35;101356.97;;;2.74;54.67
61618;BME280;47518;51.776;9.370;2022-12-17T11:57:48;101348.50;;;4.34;49.09
61618;BME280;47518;51.776;9.370;2022-12-17T12:00:42;101344.25;;;4.56;48.54
61618;BME280;47518;51.776;9.370;2022-12-17T12:03:49;101349.56;;;3.95;49.07
61618;BME280;47518;51.776;9.370;2022-12-17T12:07:01;101352.38;;;2.35;53.46
61618;BME280;47518;51.776;9.370;2022-12-17T12:09:56;101350.94;;;1.58;56.59
61618;BME280;47518;51.776;9.370;2022-12-17T12:16:17;101360.69;;;1.15;58.99
61618;BME280;47518;51.776;9.370;2022-12-17T12:19:33;101353.16;;;1.80;57.84
61618;BME280;47518;51.776;9.370;2022-12-17T12:35:42;101354.19;;;1.49;57.97
61618;BME280;47518;51.776;9.370;2022-12-17T12:38:32;101349.78;;;1.48;58.40
61618;BME280;47518;51.776;9.370;2022-12-17T12:44:15;101356.84;;;0.27;62.10
61618;BME280;47518;51.776;9.370;2022-12-17T12:47:08;101353.81;;;0.49;61.70
61618;BME280;47518;51.776;9.370;2022-12-17T13:03:07;101352.25;;;0.14;62.89
61618;BME280;47518;51.776;9.370;2022-12-17T13:05:53;101350.03;;;0.38;63.86
61618;BME280;47518;51.776;9.370;2022-12-17T13:08:22;101349.47;;;0.78;62.70
61618;BME280;47518;51.776;9.370;2022-12-17T13:10:50;101349.84;;;0.41;63.99
61618;BME280;47518;51.776;9.370;2022-12-17T13:26:23;101336.19;;;2.63;55.21
61618;BME280;47518;51.776;9.370;2022-12-17T13:42:00;101348.03;;;3.01;54.15
61618;BME280;47518;51.776;9.370;2022-12-17T13:44:39;101344.25;;;3.68;53.85
61618;BME280;47518;51.776;9.370;2022-12-17T13:47:24;101348.69;;;3.95;51.38
61618;BME280;47518;51.776;9.370;2022-12-17T13:49:51;101350.84;;;3.77;53.25
61618;BME280;47518;51.776;9.370;2022-12-17T13:52:19;101350.19;;;3.61;53.29
61618;BME280;47518;51.776;9.370;2022-12-17T13:54:44;101353.19;;;3.56;52.60
61618;BME280;47518;51.776;9.370;2022-12-17T14:10:19;101374.81;;;1.77;58.63
61618;BME280;47518;51.776;9.370;2022-12-17T14:12:45;101381.06;;;1.48;57.69
61618;BME280;47518;51.776;9.370;2022-12-17T14:15:26;101371.72;;;0.95;60.27
61618;BME280;47518;51.776;9.370;2022-12-17T14:17:54;101379.53;;;0.83;60.58
61618;BME280;47518;51.776;9.370;2022-12-17T14:20:24;101380.56;;;0.34;62.96
61618;BME280;47518;51.776;9.370;2022-12-17T14:22:52;101382.56;;;-0.03;63.71
61618;BME280;47518;51.776;9.370;2022-12-17T14:25:22;101390.25;;;-0.30;65.11
61618;BME280;47518;51.776;9.370;2022-12-17T14:41:53;101400.25;;;-1.95;72.19
61618;BME280;47518;51.776;9.370;2022-12-17T14:45:00;101399.72;;;-2.03;72.77
61618;BME280;47518;51.776;9.370;2022-12-17T14:47:28;101398.34;;;-2.32;72.35
61618;BME280;47518;51.776;9.370;2022-12-17T14:50:06;101402.78;;;-2.52;73.25
61618;BME280;47518;51.776;9.370;2022-12-17T14:52:45;101394.25;;;-2.60;74.18
61618;BME280;47518;51.776;9.370;2022-12-17T15:21:16;101406.88;;;-3.96;79.37
61618;BME280;47518;51.776;9.370;2022-12-17T15:23:43;101403.13;;;-4.14;80.04
61618;BME280;47518;51.776;9.370;2022-12-17T15:26:09;101407.44;;;-4.35;80.79
61618;BME280;47518;51.776;9.370;2022-12-17T15:28:35;101409.47;;;-4.43;80.95
61618;BME280;47518;51.776;9.370;2022-12-17T15:31:00;101422.19;;;-4.51;82.11
61618;BME280;47518;51.776;9.370;2022-12-17T15:33:25;101423.63;;;-4.43;81.18
61618;BME280;47518;51.776;9.370;2022-12-17T15:35:51;101417.25;;;-4.37;80.95
61618;BME280;47518;51.776;9.370;2022-12-17T15:38:16;101425.22;;;-4.37;81.53
61618;BME280;47518;51.776;9.370;2022-12-17T15:40:41;101424.50;;;-4.42;81.00
61618;BME280;47518;51.776;9.370;2022-12-17T15:43:09;101412.00;;;-4.38;81.41
61618;BME280;47518;51.776;9.370;2022-12-17T15:45:37;101425.91;;;-4.32;80.90
61618;BME280;47518;51.776;9.370;2022-12-17T15:48:02;101423.81;;;-4.47;80.39
61618;BME280;47518;51.776;9.370;2022-12-17T15:50:28;101420.81;;;-4.38;80.43
61618;BME280;47518;51.776;9.370;2022-12-17T15:52:53;101414.84;;;-4.45;81.13
61618;BME280;47518;51.776;9.370;2022-12-17T15:55:18;101420.41;;;-4.52;81.76
61618;BME280;47518;51.776;9.370;2022-12-17T15:57:44;101426.28;;;-4.67;81.38
61618;BME280;47518;51.776;9.370;2022-12-17T16:00:10;101429.41;;;-4.81;82.00
61618;BME280;47518;51.776;9.370;2022-12-17T16:02:36;101437.63;;;-4.64;81.20
61618;BME280;47518;51.776;9.370;2022-12-17T16:05:01;101440.41;;;-4.67;81.15
61618;BME280;47518;51.776;9.370;2022-12-17T16:07:27;101435.69;;;-4.84;80.06
61618;BME280;47518;51.776;9.370;2022-12-17T16:09:52;101439.34;;;-4.88;80.15
61618;BME280;47518;51.776;9.370;2022-12-17T16:12:17;101432.41;;;-5.18;80.76
61618;BME280;47518;51.776;9.370;2022-12-17T16:14:43;101437.50;;;-5.12;81.75
61618;BME280;47518;51.776;9.370;2022-12-17T16:17:08;101442.66;;;-5.08;80.63
61618;BME280;47518;51.776;9.370;2022-12-17T16:19:34;101439.56;;;-5.20;81.38
61618;BME280;47518;51.776;9.370;2022-12-17T16:22:00;101448.16;;;-5.14;80.52
61618;BME280;47518;51.776;9.370;2022-12-17T16:24:25;101445.75;;;-5.21;81.21
61618;BME280;47518;51.776;9.370;2022-12-17T16:26:50;101446.25;;;-5.09;81.14
61618;BME280;47518;51.776;9.370;2022-12-17T16:29:15;101454.94;;;-5.05;80.98
61618;BME280;47518;51.776;9.370;2022-12-17T16:31:41;101448.03;;;-5.09;80.45
61618;BME280;47518;51.776;9.370;2022-12-17T16:34:07;101453.66;;;-5.20;81.09
61618;BME280;47518;51.776;9.370;2022-12-17T16:36:33;101454.66;;;-5.24;80.98
61618;BME280;47518;51.776;9.370;2022-12-17T16:38:59;101458.63;;;-5.37;81.52
61618;BME280;47518;51.776;9.370;2022-12-17T16:41:24;101460.25;;;-5.61;82.83
61618;BME280;47518;51.776;9.370;2022-12-17T16:43:50;101459.88;;;-5.49;81.44
61618;BME280;47518;51.776;9.370;2022-12-17T16:46:32;101463.00;;;-5.36;80.04
61618;BME280;47518;51.776;9.370;2022-12-17T16:49:03;101464.03;;;-5.40;80.65
61618;BME280;47518;51.776;9.370;2022-12-17T16:51:29;101462.72;;;-5.55;80.51
61618;BME280;47518;51.776;9.370;2022-12-17T16:53:56;101472.44;;;-5.55;80.85
61618;BME280;47518;51.776;9.370;2022-12-17T16:56:24;101475.03;;;-5.54;80.77
61618;BME280;47518;51.776;9.370;2022-12-17T16:58:50;101478.06;;;-5.66;80.29
61618;BME280;47518;51.776;9.370;2022-12-17T17:01:19;101488.47;;;-5.60;80.42
61618;BME280;47518;51.776;9.370;2022-12-17T17:03:45;101492.28;;;-5.70;80.03
61618;BME280;47518;51.776;9.370;2022-12-17T17:06:11;101488.56;;;-5.63;79.80